Time;durP1;ratioP1;P1;durP2;ratioP2;P2;SDS_P1;SDS_P2;PMS_P1;PMS_P2;Temp;Humidity;BMP_temperature;BMP_pressure;BME280_temperature;BME280_humidity;BME280_pressure;Samples;Min_cycle;Max_cycle;Signal;HPM_P1;HPM_P2
2022/10/18 00:01:34;;;;;;;7.35;4.72;;;;;;;;;;5046169;28;20040;-62
2022/10/18 00:03:59;;;;;;;8.65;4.95;;;;;;;;;;5025590;28;20025;-62
2022/10/18 00:06:25;;;;;;;9.98;5.38;;;;;;;;;;5026453;28;20129;-61
2022/10/18 00:08:50;;;;;;;10.55;5.38;;;;;;;;;;5026053;28;20124;-61
2022/10/18 00:11:16;;;;;;;8.70;4.47;;;;;;;;;;5025760;28;20124;-62
2022/10/18 00:13:41;;;;;;;8.70;5.22;;;;;;;;;;5029800;28;20030;-62
2022/10/18 00:16:12;;;;;;;7.93;4.72;;;;;;;;;;5029378;28;20026;-62
2022/10/18 00:18:38;;;;;;;8.65;5.07;;;;;;;;;;5028161;28;20021;-62
2022/10/18 00:21:11;;;;;;;7.72;4.28;;;;;;;;;;5029268;28;20040;-61
2022/10/18 00:23:36;;;;;;;9.38;4.70;;;;;;;;;;5030902;28;20599;-62
2022/10/18 00:26:06;;;;;;;10.02;4.95;;;;;;;;;;5047743;28;20048;-62
2022/10/18 00:28:33;;;;;;;7.30;4.80;;;;;;;;;;5049103;28;20116;-62
2022/10/18 00:31:28;;;;;;;7.90;4.43;;;;;;;;;;5049009;28;20222;-62
2022/10/18 00:33:58;;;;;;;8.55;4.80;;;;;;;;;;5049441;28;20588;-62
2022/10/18 00:36:25;;;;;;;8.43;4.93;;;;;;;;;;5048902;28;20533;-61
2022/10/18 00:38:51;;;;;;;13.52;5.05;;;;;;;;;;5041058;28;20037;-62
2022/10/18 00:41:19;;;;;;;12.88;5.53;;;;;;;;;;5047840;28;20044;-61
2022/10/18 00:43:58;;;;;;;9.68;5.43;;;;;;;;;;5048960;28;20053;-62
2022/10/18 00:46:26;;;;;;;8.88;5.07;;;;;;;;;;5048670;28;20469;-62
2022/10/18 00:48:53;;;;;;;9.93;5.57;;;;;;;;;;5049180;28;20068;-62
2022/10/18 00:51:20;;;;;;;8.32;5.30;;;;;;;;;;5048118;28;20037;-62
2022/10/18 00:53:46;;;;;;;9.27;4.88;;;;;;;;;;5048655;28;20167;-62
2022/10/18 00:56:12;;;;;;;10.82;5.05;;;;;;;;;;5048807;28;20124;-61
2022/10/18 00:58:37;;;;;;;9.95;5.15;;;;;;;;;;5048548;28;20414;-62
2022/10/18 01:01:03;;;;;;;9.38;4.90;;;;;;;;;;5048086;28;20032;-62
2022/10/18 01:03:28;;;;;;;9.13;4.75;;;;;;;;;;5049320;28;20028;-62
2022/10/18 01:05:54;;;;;;;9.02;5.00;;;;;;;;;;5048554;28;20041;-62
2022/10/18 01:08:25;;;;;;;7.88;5.28;;;;;;;;;;5044556;28;20120;-62
2022/10/18 01:11:00;;;;;;;8.10;5.03;;;;;;;;;;5048491;28;20044;-62
2022/10/18 01:13:41;;;;;;;10.30;5.53;;;;;;;;;;5047182;28;20423;-62
2022/10/18 01:16:24;;;;;;;9.20;4.65;;;;;;;;;;5046913;28;20025;-62
2022/10/18 01:18:49;;;;;;;8.32;5.05;;;;;;;;;;5048669;28;20056;-62
2022/10/18 01:21:36;;;;;;;9.15;5.40;;;;;;;;;;5048495;28;20085;-62
2022/10/18 01:24:19;;;;;;;10.10;5.38;;;;;;;;;;5047370;28;20045;-62
2022/10/18 01:26:55;;;;;;;;;;;;;;;;;;5048589;28;20075;-62
2022/10/18 01:29:50;;;;;;;9.85;5.13;;;;;;;;;;5048171;28;19912;-62
2022/10/18 01:32:20;;;;;;;11.05;5.63;;;;;;;;;;5043450;28;20048;-62
2022/10/18 01:34:48;;;;;;;7.72;4.82;;;;;;;;;;5046606;28;20501;-61
2022/10/18 01:37:16;;;;;;;9.05;5.13;;;;;;;;;;5048114;28;20041;-62
2022/10/18 01:39:44;;;;;;;9.50;5.60;;;;;;;;;;5048058;28;20493;-62
2022/10/18 01:42:12;;;;;;;10.65;5.68;;;;;;;;;;5047462;28;20037;-62
2022/10/18 01:44:40;;;;;;;11.38;5.75;;;;;;;;;;5044238;28;20041;-62
2022/10/18 01:47:08;;;;;;;10.73;5.70;;;;;;;;;;5046104;28;20051;-62
2022/10/18 01:49:34;;;;;;;9.80;5.75;;;;;;;;;;5047695;28;20462;-62
2022/10/18 01:51:59;;;;;;;11.05;5.30;;;;;;;;;;5047419;28;20037;-62
2022/10/18 01:54:31;;;;;;;10.10;5.43;;;;;;;;;;5047722;28;20111;-61
2022/10/18 01:57:06;;;;;;;11.10;5.60;;;;;;;;;;5046804;28;20028;-62
2022/10/18 01:59:47;;;;;;;9.93;6.00;;;;;;;;;;5047110;28;20036;-62
2022/10/18 02:02:46;;;;;;;9.70;5.60;;;;;;;;;;5047300;28;20048;-62
2022/10/18 02:05:30;;;;;;;10.73;5.78;;;;;;;;;;5046142;28;20514;-62
2022/10/18 02:08:08;;;;;;;9.85;5.03;;;;;;;;;;5045747;28;20048;-62
2022/10/18 02:10:39;;;;;;;9.48;4.95;;;;;;;;;;5045871;28;20070;-62
2022/10/18 02:13:06;;;;;;;10.43;6.07;;;;;;;;;;5053142;28;20112;-62
2022/10/18 02:15:38;;;;;;;10.25;5.35;;;;;;;;;;5053445;28;20063;-62
2022/10/18 02:18:09;;;;;;;12.73;5.72;;;;;;;;;;5046506;28;20041;-62
2022/10/18 02:20:36;;;;;;;8.75;4.70;;;;;;;;;;5047397;28;20124;-62
2022/10/18 02:23:03;;;;;;;11.07;5.88;;;;;;;;;;5045725;28;20463;-62
2022/10/18 02:25:31;;;;;;;10.02;5.45;;;;;;;;;;5047056;28;20043;-62
2022/10/18 02:27:57;;;;;;;10.60;5.53;;;;;;;;;;5047000;28;20029;-62
2022/10/18 02:30:32;;;;;;;10.57;5.40;;;;;;;;;;5047969;28;20086;-62
2022/10/18 02:33:03;;;;;;;8.10;5.13;;;;;;;;;;5046617;28;20113;-62
2022/10/18 02:35:34;;;;;;;10.75;5.50;;;;;;;;;;5046677;28;20048;-62
2022/10/18 02:38:01;;;;;;;9.27;4.78;;;;;;;;;;5046886;28;20037;-62
2022/10/18 02:40:27;;;;;;;10.07;5.43;;;;;;;;;;5047121;28;20037;-62
2022/10/18 02:42:55;;;;;;;11.60;5.53;;;;;;;;;;5046521;28;20590;-62
2022/10/18 02:45:21;;;;;;;8.95;5.13;;;;;;;;;;5045831;28;20604;-62
2022/10/18 02:47:46;;;;;;;9.65;5.80;;;;;;;;;;5056289;28;20043;-61
2022/10/18 02:50:12;;;;;;;9.82;5.07;;;;;;;;;;5066308;28;20068;-62
2022/10/18 02:52:37;;;;;;;10.00;5.50;;;;;;;;;;5066717;28;20028;-62
2022/10/18 02:55:04;;;;;;;10.98;5.90;;;;;;;;;;5066498;28;20021;-61
2022/10/18 02:57:29;;;;;;;8.68;5.10;;;;;;;;;;5044266;28;20471;-62
2022/10/18 02:59:54;;;;;;;11.35;5.97;;;;;;;;;;5043106;28;20047;-62
2022/10/18 03:02:20;;;;;;;14.32;6.30;;;;;;;;;;5046394;28;20091;-62
2022/10/18 03:04:45;;;;;;;11.52;5.63;;;;;;;;;;5046261;28;20068;-62
2022/10/18 03:07:10;;;;;;;11.40;5.35;;;;;;;;;;5045866;28;20040;-62
2022/10/18 03:09:36;;;;;;;10.65;5.15;;;;;;;;;;5045460;28;20107;-62
2022/10/18 03:12:01;;;;;;;10.70;5.85;;;;;;;;;;5051079;28;20028;-62
2022/10/18 03:14:26;;;;;;;10.43;5.85;;;;;;;;;;5066294;28;20127;-62
2022/10/18 03:16:52;;;;;;;11.85;5.90;;;;;;;;;;5065099;28;20032;-61
2022/10/18 03:19:17;;;;;;;10.05;5.85;;;;;;;;;;5062763;28;20705;-62
2022/10/18 03:21:42;;;;;;;11.38;5.82;;;;;;;;;;5066426;28;20501;-62
2022/10/18 03:24:07;;;;;;;22.25;8.93;;;;;;;;;;5066257;28;20037;-62
2022/10/18 03:26:33;;;;;;;74.07;32.22;;;;;;;;;;5066176;28;20081;-61
2022/10/18 03:28:58;;;;;;;32.85;14.35;;;;;;;;;;5066149;28;20036;-61
2022/10/18 03:31:23;;;;;;;12.75;6.70;;;;;;;;;;5065020;28;20032;-62
2022/10/18 03:33:49;;;;;;;13.10;5.90;;;;;;;;;;5066853;28;20060;-61
2022/10/18 03:36:14;;;;;;;10.32;5.80;;;;;;;;;;5066115;28;20055;-61
2022/10/18 03:38:40;;;;;;;9.98;5.32;;;;;;;;;;5064448;28;20040;-61
2022/10/18 03:41:05;;;;;;;9.25;5.13;;;;;;;;;;5045653;28;20573;-62
2022/10/18 03:43:30;;;;;;;10.70;5.90;;;;;;;;;;5046387;28;20083;-61
2022/10/18 03:45:56;;;;;;;10.48;5.93;;;;;;;;;;5046057;28;20017;-62
2022/10/18 03:48:21;;;;;;;9.75;5.35;;;;;;;;;;5052105;28;20030;-61
2022/10/18 03:50:46;;;;;;;13.35;5.50;;;;;;;;;;5047065;28;20029;-62
2022/10/18 03:53:12;;;;;;;8.90;5.20;;;;;;;;;;5049840;28;20434;-62
2022/10/18 03:55:37;;;;;;;10.18;4.90;;;;;;;;;;5048529;28;20037;-62
2022/10/18 03:58:03;;;;;;;8.88;5.70;;;;;;;;;;5048619;28;20581;-62
2022/10/18 04:00:28;;;;;;;9.27;5.25;;;;;;;;;;5050259;28;20078;-62
2022/10/18 04:02:54;;;;;;;10.23;5.22;;;;;;;;;;5049386;28;20666;-62
2022/10/18 04:05:20;;;;;;;11.98;5.35;;;;;;;;;;5053617;28;20074;-61
2022/10/18 04:07:45;;;;;;;9.77;5.93;;;;;;;;;;5062017;28;20038;-62
2022/10/18 04:10:10;;;;;;;8.73;5.15;;;;;;;;;;5069480;28;20082;-62
2022/10/18 04:12:36;;;;;;;9.55;4.95;;;;;;;;;;5069667;28;20025;-61
2022/10/18 04:15:01;;;;;;;13.27;5.72;;;;;;;;;;5069583;28;20033;-62
2022/10/18 04:17:27;;;;;;;10.68;5.53;;;;;;;;;;5069420;28;20024;-62
2022/10/18 04:19:52;;;;;;;9.27;5.30;;;;;;;;;;5041245;28;20576;-62
2022/10/18 04:22:17;;;;;;;13.10;6.18;;;;;;;;;;5049654;28;20413;-62
2022/10/18 04:24:43;;;;;;;10.52;5.32;;;;;;;;;;5050032;28;20116;-63
2022/10/18 04:27:08;;;;;;;9.52;5.07;;;;;;;;;;5058159;28;20029;-62
2022/10/18 04:29:33;;;;;;;10.07;5.57;;;;;;;;;;5047341;28;20129;-62
2022/10/18 04:31:59;;;;;;;8.93;4.72;;;;;;;;;;5048339;28;20520;-62
2022/10/18 04:34:25;;;;;;;13.85;6.05;;;;;;;;;;5048709;28;20033;-61
2022/10/18 04:36:50;;;;;;;12.85;6.15;;;;;;;;;;5050064;28;20032;-61
2022/10/18 04:39:16;;;;;;;15.82;6.75;;;;;;;;;;5048962;28;20037;-62
2022/10/18 04:41:41;;;;;;;15.57;7.70;;;;;;;;;;5047824;28;20029;-62
2022/10/18 04:44:06;;;;;;;19.58;8.52;;;;;;;;;;5040559;28;20064;-61
2022/10/18 04:46:32;;;;;;;21.20;8.88;;;;;;;;;;5029260;28;20581;-61
2022/10/18 04:49:00;;;;;;;20.58;9.07;;;;;;;;;;5029157;28;20021;-62
2022/10/18 04:51:25;;;;;;;23.30;9.25;;;;;;;;;;5028098;28;20380;-62
2022/10/18 04:53:50;;;;;;;24.75;10.15;;;;;;;;;;5058166;28;20040;-62
2022/10/18 04:56:16;;;;;;;27.67;10.57;;;;;;;;;;5067565;28;20098;-62
2022/10/18 04:58:41;;;;;;;25.13;10.43;;;;;;;;;;5067135;28;20033;-62
2022/10/18 05:01:06;;;;;;;27.00;10.48;;;;;;;;;;5068869;28;20025;-62
2022/10/18 05:03:32;;;;;;;25.17;10.15;;;;;;;;;;5069547;28;20024;-62
2022/10/18 05:05:57;;;;;;;22.15;10.70;;;;;;;;;;5068188;28;20029;-62
2022/10/18 05:08:23;;;;;;;26.13;9.85;;;;;;;;;;5068700;28;20651;-62
2022/10/18 05:10:48;;;;;;;22.98;9.98;;;;;;;;;;5068328;28;20040;-62
2022/10/18 05:13:14;;;;;;;19.60;8.60;;;;;;;;;;5068313;28;20055;-62
2022/10/18 05:15:39;;;;;;;26.58;10.40;;;;;;;;;;5047635;28;20057;-62
2022/10/18 05:18:04;;;;;;;23.10;10.27;;;;;;;;;;5047035;28;20577;-62
2022/10/18 05:20:30;;;;;;;22.75;9.20;;;;;;;;;;5048130;28;20044;-62
2022/10/18 05:22:56;;;;;;;23.77;10.70;;;;;;;;;;5048018;28;20029;-62
2022/10/18 05:25:22;;;;;;;25.63;9.10;;;;;;;;;;5048192;28;20239;-62
2022/10/18 05:27:47;;;;;;;24.00;9.25;;;;;;;;;;5046812;28;20477;-62
2022/10/18 05:30:12;;;;;;;27.88;9.73;;;;;;;;;;5047388;28;20928;-62
2022/10/18 05:32:38;;;;;;;23.55;9.52;;;;;;;;;;5046216;28;20417;-62
2022/10/18 05:35:03;;;;;;;21.58;9.38;;;;;;;;;;5048091;28;20552;-62
2022/10/18 05:37:29;;;;;;;25.80;10.13;;;;;;;;;;5047271;28;20040;-62
2022/10/18 05:39:54;;;;;;;23.85;9.52;;;;;;;;;;5048036;28;20029;-62
2022/10/18 05:42:19;;;;;;;26.73;9.73;;;;;;;;;;5048201;28;20021;-62
2022/10/18 05:44:45;;;;;;;23.73;9.23;;;;;;;;;;5047624;28;20056;-62
2022/10/18 05:47:10;;;;;;;20.90;9.95;;;;;;;;;;5047966;28;20114;-62
2022/10/18 05:49:35;;;;;;;27.05;10.02;;;;;;;;;;5048035;28;20526;-62
2022/10/18 05:52:01;;;;;;;24.27;9.55;;;;;;;;;;5047694;28;20697;-62
2022/10/18 05:54:26;;;;;;;21.20;9.13;;;;;;;;;;5047374;28;20547;-62
2022/10/18 05:56:51;;;;;;;17.95;8.85;;;;;;;;;;5041954;28;20409;-61
2022/10/18 05:59:16;;;;;;;22.17;9.70;;;;;;;;;;5040101;28;20060;-61
2022/10/18 06:01:42;;;;;;;20.05;7.97;;;;;;;;;;5057214;28;20035;-61
2022/10/18 06:04:11;;;;;;;18.58;8.77;;;;;;;;;;5067760;28;20020;-61
2022/10/18 06:06:37;;;;;;;19.42;8.30;;;;;;;;;;5061181;28;20060;-62
2022/10/18 06:09:05;;;;;;;16.33;8.20;;;;;;;;;;5046923;28;20025;-61
2022/10/18 06:11:31;;;;;;;15.43;7.82;;;;;;;;;;5046585;28;20037;-62
2022/10/18 06:13:56;;;;;;;19.02;8.70;;;;;;;;;;5039520;28;20040;-62
2022/10/18 06:16:23;;;;;;;22.45;8.15;;;;;;;;;;5036159;28;20083;-62
2022/10/18 06:18:50;;;;;;;19.27;8.02;;;;;;;;;;5047364;28;20528;-62
2022/10/18 06:21:16;;;;;;;18.55;7.93;;;;;;;;;;5047505;28;20037;-61
2022/10/18 06:23:41;;;;;;;22.60;8.13;;;;;;;;;;5045650;28;20037;-61
2022/10/18 06:26:09;;;;;;;17.77;8.07;;;;;;;;;;5043582;28;20029;-61
2022/10/18 06:28:36;;;;;;;19.67;7.80;;;;;;;;;;5046829;28;20028;-62
2022/10/18 06:31:02;;;;;;;22.90;8.77;;;;;;;;;;5046609;28;20027;-61
2022/10/18 06:33:29;;;;;;;23.00;8.32;;;;;;;;;;5045580;28;20024;-61
2022/10/18 06:36:00;;;;;;;19.70;7.60;;;;;;;;;;5046775;28;20060;-62
2022/10/18 06:38:26;;;;;;;15.52;7.53;;;;;;;;;;5050408;28;20565;-62
2022/10/18 06:40:53;;;;;;;17.80;7.97;;;;;;;;;;5026109;28;20053;-62
2022/10/18 06:43:18;;;;;;;15.85;7.50;;;;;;;;;;5026819;28;20037;-62
2022/10/18 06:45:43;;;;;;;19.05;7.63;;;;;;;;;;5031940;28;20453;-62
2022/10/18 06:48:09;;;;;;;20.33;7.80;;;;;;;;;;5046811;28;20530;-62
2022/10/18 06:50:34;;;;;;;20.33;8.05;;;;;;;;;;5027914;28;20048;-62
2022/10/18 06:53:01;;;;;;;16.95;7.85;;;;;;;;;;5046079;28;20592;-61
2022/10/18 06:55:26;;;;;;;18.10;7.28;;;;;;;;;;5046824;28;20059;-61
2022/10/18 06:57:52;;;;;;;20.38;8.70;;;;;;;;;;5046957;28;20477;-61
2022/10/18 07:00:17;;;;;;;23.38;8.57;;;;;;;;;;5046452;28;20041;-62
2022/10/18 07:02:43;;;;;;;19.50;8.50;;;;;;;;;;5056032;28;20531;-62
2022/10/18 07:05:09;;;;;;;16.60;8.13;;;;;;;;;;5066555;28;20044;-61
2022/10/18 07:07:34;;;;;;;18.67;9.23;;;;;;;;;;5065867;28;20479;-62
2022/10/18 07:09:59;;;;;;;17.13;8.40;;;;;;;;;;5064614;28;20032;-62
2022/10/18 07:12:25;;;;;;;16.13;7.78;;;;;;;;;;5049632;28;20020;-62
2022/10/18 07:14:50;;;;;;;16.88;7.63;;;;;;;;;;5044752;28;20063;-61
2022/10/18 07:17:15;;;;;;;17.38;8.65;;;;;;;;;;5041886;28;20037;-62
2022/10/18 07:19:41;;;;;;;13.82;7.50;;;;;;;;;;5046296;28;20071;-62
2022/10/18 07:22:06;;;;;;;17.70;7.47;;;;;;;;;;5045530;28;20104;-62
2022/10/18 07:24:31;;;;;;;16.23;7.93;;;;;;;;;;5045403;28;20051;-62
2022/10/18 07:26:57;;;;;;;16.38;8.00;;;;;;;;;;5046534;28;20037;-62
2022/10/18 07:29:22;;;;;;;18.00;7.47;;;;;;;;;;5046073;28;20070;-62
2022/10/18 07:31:47;;;;;;;25.70;9.13;;;;;;;;;;5043301;28;20060;-62
2022/10/18 07:34:13;;;;;;;16.83;8.02;;;;;;;;;;5024579;28;20116;-62
2022/10/18 07:36:39;;;;;;;20.95;8.70;;;;;;;;;;5022850;28;20145;-62
2022/10/18 07:39:05;;;;;;;17.60;7.72;;;;;;;;;;5044253;28;20033;-61
2022/10/18 07:41:32;;;;;;;17.70;8.55;;;;;;;;;;5041934;28;20426;-62
2022/10/18 07:43:58;;;;;;;15.88;7.68;;;;;;;;;;5040006;28;20041;-62
2022/10/18 07:46:24;;;;;;;20.52;8.73;;;;;;;;;;5032602;28;20037;-62
2022/10/18 07:48:50;;;;;;;18.20;8.13;;;;;;;;;;5026780;28;20025;-61
2022/10/18 07:51:16;;;;;;;22.58;8.55;;;;;;;;;;5035250;28;20121;-61
2022/10/18 07:53:41;;;;;;;18.60;8.75;;;;;;;;;;5066013;28;20139;-62
2022/10/18 07:56:14;;;;;;;20.63;10.02;;;;;;;;;;5065818;28;20123;-61
2022/10/18 07:58:40;;;;;;;22.83;9.93;;;;;;;;;;5041823;28;20029;-62
2022/10/18 08:01:08;;;;;;;29.73;11.30;;;;;;;;;;5026814;28;20108;-62
2022/10/18 08:03:34;;;;;;;25.20;10.90;;;;;;;;;;5041013;28;20029;-61
2022/10/18 08:06:00;;;;;;;21.13;10.15;;;;;;;;;;5030923;28;20040;-62
2022/10/18 08:08:26;;;;;;;23.08;9.52;;;;;;;;;;5036569;28;20037;-62
2022/10/18 08:10:51;;;;;;;20.42;9.63;;;;;;;;;;5045575;28;20061;-62
2022/10/18 08:13:17;;;;;;;65.63;9.27;;;;;;;;;;5039338;28;20036;-62
2022/10/18 08:15:43;;;;;;;47.08;9.88;;;;;;;;;;5041888;28;20154;-62
2022/10/18 08:18:08;;;;;;;57.72;11.10;;;;;;;;;;5036329;28;20060;-62
2022/10/18 08:20:35;;;;;;;26.00;11.02;;;;;;;;;;5030912;28;20037;-62
2022/10/18 08:23:02;;;;;;;22.10;10.93;;;;;;;;;;5040070;28;20041;-62
2022/10/18 08:25:28;;;;;;;29.83;10.98;;;;;;;;;;5042793;28;20037;-61
2022/10/18 08:27:53;;;;;;;28.77;9.93;;;;;;;;;;5038950;28;20067;-61
2022/10/18 08:30:18;;;;;;;26.20;10.05;;;;;;;;;;5032360;28;20037;-61
2022/10/18 08:32:44;;;;;;;23.52;10.00;;;;;;;;;;5044834;28;20041;-62
2022/10/18 08:35:09;;;;;;;37.03;12.05;;;;;;;;;;5047898;28;20182;-61
2022/10/18 08:37:34;;;;;;;30.02;12.52;;;;;;;;;;5043845;28;20079;-61
2022/10/18 08:39:59;;;;;;;28.90;11.77;;;;;;;;;;5037051;28;20033;-61
2022/10/18 08:42:28;;;;;;;30.02;12.50;;;;;;;;;;5029845;28;20017;-62
2022/10/18 08:44:54;;;;;;;30.08;12.25;;;;;;;;;;5028571;28;20053;-62
2022/10/18 08:47:32;;;;;;;31.80;12.07;;;;;;;;;;5028531;28;20083;-62
2022/10/18 08:50:04;;;;;;;34.42;13.48;;;;;;;;;;5029366;28;20034;-62
2022/10/18 08:52:37;;;;;;;27.45;13.13;;;;;;;;;;5043154;28;20029;-62
2022/10/18 08:55:08;;;;;;;36.70;12.45;;;;;;;;;;5049112;28;20024;-61
2022/10/18 08:57:34;;;;;;;33.35;13.82;;;;;;;;;;5041161;28;20053;-62
2022/10/18 09:00:01;;;;;;;35.42;14.15;;;;;;;;;;5040295;28;20459;-61
2022/10/18 09:02:59;;;;;;;42.13;14.90;;;;;;;;;;5035969;28;20037;-62
2022/10/18 09:05:31;;;;;;;29.40;12.98;;;;;;;;;;5029394;28;20053;-61
2022/10/18 09:08:15;;;;;;;29.58;13.25;;;;;;;;;;5056973;28;20045;-62
2022/10/18 09:10:42;;;;;;;;;;;;;;;;;;5062087;28;20037;-62
2022/10/18 09:13:33;;;;;;;31.00;13.95;;;;;;;;;;5041904;28;19912;-62
2022/10/18 09:16:02;;;;;;;30.35;12.60;;;;;;;;;;5048452;28;20150;-62
2022/10/18 09:18:27;;;;;;;29.15;12.75;;;;;;;;;;5044993;28;20104;-62
2022/10/18 09:20:58;;;;;;;34.78;12.57;;;;;;;;;;5042547;28;20187;-61
2022/10/18 09:23:47;;;;;;;27.27;12.77;;;;;;;;;;5034337;28;20033;-62
2022/10/18 09:26:17;;;;;;;35.28;14.32;;;;;;;;;;5041580;28;20472;-62
2022/10/18 09:29:08;;;;;;;25.70;12.27;;;;;;;;;;5047890;28;20029;-62
2022/10/18 09:32:02;;;;;;;29.95;13.27;;;;;;;;;;5046828;28;20037;-62
2022/10/18 09:34:36;;;;;;;31.05;13.40;;;;;;;;;;5028202;28;20068;-62
2022/10/18 09:37:02;;;;;;;31.95;14.70;;;;;;;;;;5047147;28;20029;-62
2022/10/18 09:39:32;;;;;;;29.23;13.82;;;;;;;;;;5046905;28;20025;-62
2022/10/18 09:42:10;;;;;;;33.83;14.90;;;;;;;;;;5043270;28;20056;-63
2022/10/18 09:44:40;;;;;;;32.85;15.20;;;;;;;;;;5041705;28;20064;-62
2022/10/18 09:47:15;;;;;;;34.83;15.50;;;;;;;;;;5045279;28;20121;-62
2022/10/18 09:49:44;;;;;;;32.85;14.68;;;;;;;;;;5053212;28;20040;-62
2022/10/18 09:52:25;;;;;;;35.58;15.10;;;;;;;;;;5048448;28;20025;-62
2022/10/18 09:54:59;;;;;;;31.75;14.85;;;;;;;;;;5047350;28;20402;-62
2022/10/18 09:57:38;;;;;;;29.98;14.48;;;;;;;;;;5047489;28;20183;-62
2022/10/18 10:00:12;;;;;;;29.98;13.82;;;;;;;;;;5047324;28;20033;-62
2022/10/18 10:02:38;;;;;;;30.95;14.07;;;;;;;;;;5044077;28;20037;-63
2022/10/18 10:05:05;;;;;;;31.55;13.77;;;;;;;;;;5047215;28;20040;-62
2022/10/18 10:07:39;;;;;;;27.45;13.38;;;;;;;;;;5035305;28;20045;-62
2022/10/18 10:10:15;;;;;;;29.92;13.88;;;;;;;;;;5032503;28;20048;-62
2022/10/18 10:12:40;;;;;;;28.83;13.60;;;;;;;;;;5042061;28;20029;-62
2022/10/18 10:15:26;;;;;;;33.13;13.40;;;;;;;;;;5045736;28;20051;-62
2022/10/18 10:18:00;;;;;;;32.85;13.18;;;;;;;;;;5041138;28;20078;-62
2022/10/18 10:20:35;;;;;;;30.80;11.68;;;;;;;;;;5047438;28;20048;-62
2022/10/18 10:23:07;;;;;;;30.85;12.35;;;;;;;;;;5046180;28;20036;-62
2022/10/18 10:25:37;;;;;;;25.25;11.05;;;;;;;;;;5046881;28;20055;-62
2022/10/18 10:28:06;;;;;;;21.50;10.40;;;;;;;;;;5047029;28;20406;-62
2022/10/18 10:30:36;;;;;;;18.80;8.57;;;;;;;;;;5047178;28;20029;-62
2022/10/18 10:33:03;;;;;;;17.58;8.07;;;;;;;;;;5044781;28;20033;-62
2022/10/18 10:35:30;;;;;;;16.50;6.25;;;;;;;;;;5047394;28;20037;-62
2022/10/18 10:37:55;;;;;;;17.25;7.60;;;;;;;;;;5045435;28;20128;-62
2022/10/18 10:40:22;;;;;;;17.58;7.22;;;;;;;;;;5046388;28;20636;-62
2022/10/18 10:43:00;;;;;;;16.75;6.32;;;;;;;;;;5047090;28;20021;-62
2022/10/18 10:45:33;;;;;;;12.73;2.95;;;;;;;;;;5055006;28;20175;-62
2022/10/18 10:48:12;;;;;;;9.60;3.58;;;;;;;;;;5065579;28;20040;-62
2022/10/18 10:50:58;;;;;;;4.95;3.13;;;;;;;;;;5052752;28;20049;-62
2022/10/18 10:53:34;;;;;;;8.52;3.90;;;;;;;;;;5026368;28;20580;-62
2022/10/18 10:56:00;;;;;;;7.03;3.88;;;;;;;;;;5026078;28;20044;-62
2022/10/18 10:58:28;;;;;;;16.83;4.47;;;;;;;;;;5026337;28;20086;-62
2022/10/18 11:00:56;;;;;;;14.27;5.88;;;;;;;;;;5029316;28;20060;-62
2022/10/18 11:03:23;;;;;;;12.63;5.68;;;;;;;;;;5047617;28;20045;-62
2022/10/18 11:05:56;;;;;;;12.40;5.07;;;;;;;;;;5044170;28;20548;-62
2022/10/18 11:08:25;;;;;;;9.60;4.45;;;;;;;;;;5045885;28;20036;-62
2022/10/18 11:10:56;;;;;;;8.80;3.78;;;;;;;;;;5045734;28;20061;-62
2022/10/18 11:13:31;;;;;;;10.52;3.83;;;;;;;;;;5046006;28;20063;-62
2022/10/18 11:16:04;;;;;;;7.57;3.80;;;;;;;;;;5046072;28;20029;-62
2022/10/18 11:18:33;;;;;;;9.98;3.63;;;;;;;;;;5044541;28;20040;-62
2022/10/18 11:21:10;;;;;;;11.02;3.70;;;;;;;;;;5028331;28;20033;-61
2022/10/18 11:23:37;;;;;;;12.52;3.97;;;;;;;;;;5024861;28;20457;-62
2022/10/18 11:26:12;;;;;;;6.28;3.83;;;;;;;;;;5025162;28;20064;-62
2022/10/18 11:29:08;;;;;;;9.05;3.33;;;;;;;;;;5051837;28;20094;-62
2022/10/18 11:32:09;;;;;;;11.25;4.10;;;;;;;;;;5059934;28;20043;-62
2022/10/18 11:34:34;;;;;;;8.55;3.10;;;;;;;;;;5065303;28;20033;-62
2022/10/18 11:37:09;;;;;;;6.63;3.00;;;;;;;;;;5047083;28;20033;-62
2022/10/18 11:39:48;;;;;;;8.20;3.15;;;;;;;;;;5030179;28;20032;-62
2022/10/18 11:42:36;;;;;;;8.88;3.38;;;;;;;;;;5036070;28;20549;-62
2022/10/18 11:45:07;;;;;;;10.27;3.92;;;;;;;;;;5031126;28;20045;-62
2022/10/18 11:47:55;;;;;;;12.50;4.03;;;;;;;;;;5025739;28;20049;-62
2022/10/18 11:50:32;;;;;;;12.35;4.95;;;;;;;;;;5023986;28;20087;-63
2022/10/18 11:53:16;;;;;;;14.68;5.70;;;;;;;;;;5031756;28;20059;-63
2022/10/18 11:55:58;;;;;;;7.07;4.60;;;;;;;;;;5045685;28;20037;-62
2022/10/18 11:58:58;;;;;;;12.18;5.10;;;;;;;;;;5045111;28;20409;-62
2022/10/18 12:01:48;;;;;;;11.43;5.53;;;;;;;;;;5037240;28;20047;-62
2022/10/18 12:04:20;;;;;;;10.32;5.30;;;;;;;;;;5033670;28;20066;-62
2022/10/18 12:06:49;;;;;;;14.73;6.38;;;;;;;;;;5045144;28;20021;-63
2022/10/18 12:09:30;;;;;;;12.80;6.80;;;;;;;;;;5049095;28;20040;-62
2022/10/18 12:12:16;;;;;;;11.98;5.75;;;;;;;;;;5045955;28;20036;-62
2022/10/18 12:14:49;;;;;;;9.00;6.03;;;;;;;;;;5037524;28;20148;-63
2022/10/18 12:17:19;;;;;;;13.23;6.82;;;;;;;;;;5049564;28;20032;-62
2022/10/18 12:19:45;;;;;;;10.63;6.13;;;;;;;;;;5049236;28;20042;-62
2022/10/18 12:22:31;;;;;;;15.80;6.57;;;;;;;;;;5048698;28;20763;-62
2022/10/18 12:24:56;;;;;;;9.30;4.75;;;;;;;;;;5038658;28;20059;-62
2022/10/18 12:27:34;;;;;;;9.90;5.78;;;;;;;;;;5047111;28;20398;-62
2022/10/18 12:30:07;;;;;;;11.30;5.00;;;;;;;;;;5046836;28;20067;-62
2022/10/18 12:32:35;;;;;;;9.20;4.63;;;;;;;;;;5046707;28;20029;-62
2022/10/18 12:35:08;;;;;;;8.75;5.22;;;;;;;;;;5049042;28;20565;-62
2022/10/18 12:38:01;;;;;;;9.07;4.85;;;;;;;;;;5049624;28;20446;-62
2022/10/18 12:40:39;;;;;;;7.38;4.43;;;;;;;;;;5048322;28;20037;-62
2022/10/18 12:43:15;;;;;;;9.02;3.60;;;;;;;;;;5048878;28;20079;-62
2022/10/18 12:45:54;;;;;;;6.53;3.20;;;;;;;;;;5046927;28;20047;-62
2022/10/18 12:48:31;;;;;;;5.82;3.25;;;;;;;;;;5048182;28;20037;-62
2022/10/18 12:51:11;;;;;;;5.63;2.60;;;;;;;;;;5049703;28;20059;-63
2022/10/18 12:53:37;;;;;;;5.15;2.78;;;;;;;;;;5049101;28;20574;-62
2022/10/18 12:56:27;;;;;;;5.50;2.35;;;;;;;;;;5049601;28;20120;-62
2022/10/18 12:59:14;;;;;;;4.55;2.20;;;;;;;;;;5048321;28;20073;-62
2022/10/18 13:02:06;;;;;;;7.07;2.42;;;;;;;;;;5048236;28;20447;-63
2022/10/18 13:04:35;;;;;;;4.63;2.20;;;;;;;;;;5041291;28;20039;-62
2022/10/18 13:07:07;;;;;;;9.25;2.75;;;;;;;;;;5049507;28;20100;-62
2022/10/18 13:09:43;;;;;;;4.85;2.03;;;;;;;;;;5047757;28;20025;-62
2022/10/18 13:12:08;;;;;;;7.70;2.75;;;;;;;;;;5062044;28;20499;-62
2022/10/18 13:14:43;;;;;;;8.50;5.00;;;;;;;;;;5069459;28;20525;-62
2022/10/18 13:17:37;;;;;;;5.55;2.70;;;;;;;;;;5069161;28;20036;-62
2022/10/18 13:20:21;;;;;;;4.57;2.33;;;;;;;;;;5067891;28;20037;-62
2022/10/18 13:23:01;;;;;;;8.70;2.83;;;;;;;;;;5068798;28;20037;-62
2022/10/18 13:25:55;;;;;;;6.40;2.50;;;;;;;;;;5067462;28;20033;-62
2022/10/18 13:28:38;;;;;;;4.90;2.40;;;;;;;;;;5060932;28;20041;-62
2022/10/18 13:31:19;;;;;;;4.93;2.40;;;;;;;;;;5043164;28;20470;-63
2022/10/18 13:33:45;;;;;;;6.18;2.35;;;;;;;;;;5048464;28;20024;-63
2022/10/18 13:36:16;;;;;;;4.80;2.53;;;;;;;;;;5047894;28;20606;-62
2022/10/18 13:38:54;;;;;;;5.72;2.72;;;;;;;;;;5048473;28;20048;-62
2022/10/18 13:41:26;;;;;;;7.80;2.45;;;;;;;;;;5046724;28;20043;-62
2022/10/18 13:43:51;;;;;;;4.53;1.85;;;;;;;;;;5037309;28;20044;-62
2022/10/18 13:46:17;;;;;;;4.70;2.20;;;;;;;;;;5027177;28;20029;-62
2022/10/18 13:49:07;;;;;;;4.68;1.90;;;;;;;;;;5040224;28;20032;-62
2022/10/18 13:51:41;;;;;;;3.10;1.73;;;;;;;;;;5023608;28;20567;-62
2022/10/18 13:54:39;;;;;;;3.10;1.60;;;;;;;;;;5045343;28;20506;-62
2022/10/18 13:57:19;;;;;;;3.90;1.40;;;;;;;;;;5023782;28;20048;-62
2022/10/18 14:00:12;;;;;;;4.10;1.50;;;;;;;;;;5025369;28;20042;-62
2022/10/18 14:03:00;;;;;;;7.90;2.28;;;;;;;;;;5024420;28;20033;-62
2022/10/18 14:05:44;;;;;;;6.40;1.90;;;;;;;;;;5021768;28;20112;-62
2022/10/18 14:08:14;;;;;;;9.13;2.47;;;;;;;;;;5036414;28;20123;-62
2022/10/18 14:11:23;;;;;;;5.32;1.75;;;;;;;;;;5066432;28;20064;-62
2022/10/18 14:14:17;;;;;;;6.85;2.65;;;;;;;;;;5054359;28;20410;-62
2022/10/18 14:16:53;;;;;;;4.82;2.05;;;;;;;;;;5063644;28;20032;-62
2022/10/18 14:19:24;;;;;;;6.68;2.15;;;;;;;;;;5066346;28;20028;-62
2022/10/18 14:22:15;;;;;;;4.13;1.90;;;;;;;;;;5064796;28;20024;-62
2022/10/18 14:24:44;;;;;;;3.83;1.83;;;;;;;;;;5066547;28;20064;-62
2022/10/18 14:27:19;;;;;;;5.97;2.90;;;;;;;;;;5064221;28;20040;-62
2022/10/18 14:29:45;;;;;;;7.85;3.08;;;;;;;;;;5066398;28;20039;-62
2022/10/18 14:32:24;;;;;;;11.20;2.85;;;;;;;;;;5065869;28;20037;-62
2022/10/18 14:34:50;;;;;;;7.70;3.10;;;;;;;;;;5065703;28;20040;-62
2022/10/18 14:37:35;;;;;;;6.57;2.88;;;;;;;;;;5055451;28;20037;-62
2022/10/18 14:40:02;;;;;;;7.18;2.38;;;;;;;;;;5046773;28;20044;-62
2022/10/18 14:42:28;;;;;;;7.90;2.40;;;;;;;;;;5045657;28;20041;-62
2022/10/18 14:44:54;;;;;;;6.72;2.60;;;;;;;;;;5046401;28;20090;-62
2022/10/18 14:47:28;;;;;;;7.93;3.00;;;;;;;;;;5046429;28;20029;-62
2022/10/18 14:49:56;;;;;;;5.82;2.58;;;;;;;;;;5046787;28;20032;-62
2022/10/18 14:52:32;;;;;;;3.03;2.20;;;;;;;;;;5026985;28;20029;-62
2022/10/18 14:54:58;;;;;;;6.10;2.88;;;;;;;;;;5026645;28;20075;-62